Time;durP1;ratioP1;P1;durP2;ratioP2;P2;SDS_P1;SDS_P2;PMS_P1;PMS_P2;Temp;Humidity;BMP_temperature;BMP_pressure;BME280_temperature;BME280_humidity;BME280_pressure;Samples;Min_cycle;Max_cycle;Signal;HPM_P1;HPM_P2
2023/11/09 00:01:20;;;;;;;1.95;1.85;;;21.30;63.00;;;;;;5101514;28;20028;-35
2023/11/09 00:03:46;;;;;;;2.25;2.05;;;21.30;63.10;;;;;;5101104;28;20035;-34
2023/11/09 00:06:13;;;;;;;2.03;1.85;;;21.30;63.10;;;;;;5101164;28;20024;-34
2023/11/09 00:08:43;;;;;;;2.03;1.92;;;21.30;63.00;;;;;;5097436;28;20054;-34
2023/11/09 00:11:09;;;;;;;2.10;1.95;;;21.30;62.90;;;;;;5100609;28;20028;-33
2023/11/09 00:13:35;;;;;;;2.20;1.80;;;21.30;62.70;;;;;;5101057;28;20096;-33
2023/11/09 00:16:01;;;;;;;2.30;2.10;;;21.30;62.60;;;;;;5098425;28;20043;-34
2023/11/09 00:18:30;;;;;;;2.20;2.00;;;21.30;62.50;;;;;;5103387;28;20042;-35
2023/11/09 00:20:58;;;;;;;2.10;2.00;;;21.30;62.60;;;;;;5095998;28;20054;-33
2023/11/09 00:23:24;;;;;;;2.50;2.30;;;21.30;62.60;;;;;;5096818;28;20472;-34
2023/11/09 00:25:51;;;;;;;2.15;2.03;;;21.20;62.50;;;;;;5101157;28;20042;-34
2023/11/09 00:28:18;;;;;;;2.33;2.13;;;21.20;62.50;;;;;;5096820;28;20099;-34
2023/11/09 00:30:45;;;;;;;2.22;2.13;;;21.20;62.40;;;;;;5096973;28;20040;-34
2023/11/09 00:33:11;;;;;;;2.45;2.25;;;21.20;62.40;;;;;;5098859;28;20043;-34
2023/11/09 00:35:39;;;;;;;2.08;1.92;;;21.20;62.40;;;;;;5099182;28;20036;-34
2023/11/09 00:38:06;;;;;;;2.22;2.03;;;21.20;62.40;;;;;;5100800;28;20493;-35
2023/11/09 00:40:32;;;;;;;2.30;2.10;;;21.20;62.30;;;;;;5099666;28;20035;-34
2023/11/09 00:42:59;;;;;;;2.47;2.27;;;21.20;62.30;;;;;;5100282;28;20151;-35
2023/11/09 00:45:25;;;;;;;2.22;2.03;;;21.20;62.30;;;;;;5102347;28;20039;-34
2023/11/09 00:47:52;;;;;;;2.40;2.20;;;21.10;62.20;;;;;;5104013;28;20391;-34
2023/11/09 00:50:19;;;;;;;2.03;1.83;;;21.10;62.20;;;;;;5102697;28;20276;-34
2023/11/09 00:52:46;;;;;;;2.20;2.00;;;21.10;62.10;;;;;;5096929;28;20300;-34
2023/11/09 00:55:12;;;;;;;2.37;2.17;;;21.10;62.00;;;;;;5094463;28;20036;-34
2023/11/09 00:57:38;;;;;;;2.40;2.20;;;21.10;62.00;;;;;;5095344;28;20048;-34
2023/11/09 01:00:06;;;;;;;2.38;2.17;;;21.10;62.00;;;;;;5087132;28;20448;-33
2023/11/09 01:02:37;;;;;;;3.28;2.17;;;21.10;62.80;;;;;;5087057;28;20040;-34
2023/11/09 01:05:06;;;;;;;2.38;2.20;;;21.00;61.90;;;;;;5090191;28;20842;-34
2023/11/09 01:07:32;;;;;;;2.20;2.00;;;21.10;62.00;;;;;;5090943;28;20029;-34
2023/11/09 01:09:59;;;;;;;2.67;2.47;;;21.00;61.90;;;;;;5087186;28;20115;-34
2023/11/09 01:12:27;;;;;;;2.50;2.30;;;21.00;61.90;;;;;;5092210;28;20044;-35
2023/11/09 01:14:53;;;;;;;2.22;2.05;;;21.00;61.90;;;;;;5094177;28;20047;-34
2023/11/09 01:17:19;;;;;;;2.30;2.10;;;21.00;61.90;;;;;;5102904;28;20036;-34
2023/11/09 01:19:45;;;;;;;2.33;2.13;;;21.00;61.90;;;;;;5092550;28;20040;-34
2023/11/09 01:22:12;;;;;;;2.63;2.42;;;20.90;61.90;;;;;;5094406;28;20043;-35
2023/11/09 01:24:38;;;;;;;2.23;2.03;;;20.90;61.90;;;;;;5094275;28;20028;-35
2023/11/09 01:27:04;;;;;;;2.60;2.40;;;20.90;61.90;;;;;;5088941;28;20028;-33
2023/11/09 01:29:30;;;;;;;2.40;2.20;;;20.90;61.90;;;;;;5091328;28;20373;-35
2023/11/09 01:31:57;;;;;;;2.63;2.42;;;20.90;61.90;;;;;;5086222;28;20054;-33
2023/11/09 01:34:24;;;;;;;2.58;2.22;;;20.90;61.90;;;;;;5088347;28;20060;-34
2023/11/09 01:36:53;;;;;;;2.50;2.30;;;20.80;61.80;;;;;;5089734;28;20032;-34
2023/11/09 01:39:22;;;;;;;2.67;2.47;;;20.80;61.80;;;;;;5085888;28;20033;-34
2023/11/09 01:41:49;;;;;;;3.25;2.20;;;20.80;61.90;;;;;;5086075;28;20028;-35
2023/11/09 01:44:15;;;;;;;2.80;2.53;;;20.80;62.60;;;;;;5086203;28;20142;-35
2023/11/09 01:46:44;;;;;;;2.67;2.47;;;20.80;61.90;;;;;;5098684;28;20036;-34
2023/11/09 01:49:11;;;;;;;2.60;2.40;;;20.80;61.90;;;;;;5097179;28;20043;-34
2023/11/09 01:51:37;;;;;;;2.70;2.50;;;20.80;61.90;;;;;;5100035;28;20024;-34
2023/11/09 01:54:04;;;;;;;2.20;2.03;;;20.80;61.90;;;;;;5093198;28;20060;-34
2023/11/09 01:56:31;;;;;;;2.85;2.60;;;20.70;61.90;;;;;;5092955;28;20065;-33
2023/11/09 01:58:57;;;;;;;2.45;2.22;;;20.70;61.90;;;;;;5095931;28;20027;-35
2023/11/09 02:01:24;;;;;;;2.42;2.30;;;20.70;61.90;;;;;;5103844;28;20427;-35
2023/11/09 02:03:52;;;;;;;2.55;2.33;;;20.70;61.90;;;;;;5104373;28;20046;-34
2023/11/09 02:06:20;;;;;;;2.50;2.30;;;20.70;61.90;;;;;;5100121;28;20056;-34
2023/11/09 02:08:47;;;;;;;2.10;2.00;;;20.70;61.90;;;;;;5101100;28;20036;-34
2023/11/09 02:11:14;;;;;;;2.42;2.22;;;20.60;61.90;;;;;;5102739;28;20027;-35
2023/11/09 02:13:41;;;;;;;2.58;2.35;;;20.60;61.90;;;;;;5097869;28;20032;-34
2023/11/09 02:16:08;;;;;;;2.42;2.22;;;20.60;62.00;;;;;;5102220;28;20639;-34
2023/11/09 02:18:35;;;;;;;2.13;2.00;;;20.60;62.00;;;;;;5091486;28;20051;-34
2023/11/09 02:21:04;;;;;;;2.50;2.30;;;20.60;62.00;;;;;;5093750;28;20028;-34
2023/11/09 02:23:33;;;;;;;2.65;2.45;;;20.60;62.10;;;;;;5090590;28;20036;-34
2023/11/09 02:26:00;;;;;;;2.53;2.33;;;20.50;61.90;;;;;;5092946;28;20119;-34
2023/11/09 02:28:28;;;;;;;3.20;2.35;;;20.50;62.00;;;;;;5096162;28;20381;-34
2023/11/09 02:30:54;;;;;;;;;;;20.60;62.10;;;;;;5102594;28;20036;-35
2023/11/09 02:33:21;;;;;;;2.97;2.78;;;20.50;62.00;;;;;;5085150;28;19920;-34
2023/11/09 02:35:48;;;;;;;;;;;20.50;62.00;;;;;;5085970;28;20021;-35
2023/11/09 02:38:14;;;;;;;2.60;2.40;;;20.50;62.10;;;;;;5092067;28;19912;-33
2023/11/09 02:40:41;;;;;;;2.60;2.40;;;20.50;62.10;;;;;;5095325;28;20031;-33
2023/11/09 02:43:07;;;;;;;;;;;20.40;62.10;;;;;;5092269;28;20055;-34
2023/11/09 02:45:34;;;;;;;2.50;2.30;;;20.40;62.10;;;;;;5096185;28;19915;-34
2023/11/09 02:48:00;;;;;;;3.10;2.80;;;20.40;62.10;;;;;;5103188;28;20042;-34
2023/11/09 02:50:26;;;;;;;3.00;2.70;;;20.40;62.10;;;;;;5097579;28;20043;-34
2023/11/09 02:52:52;;;;;;;2.70;2.50;;;20.40;62.20;;;;;;5097012;28;20048;-34
2023/11/09 02:55:19;;;;;;;2.70;2.50;;;20.40;62.20;;;;;;5098915;28;20020;-34
2023/11/09 02:57:45;;;;;;;3.07;2.80;;;20.30;62.20;;;;;;5102549;28;20046;-34
2023/11/09 03:00:12;;;;;;;2.78;2.58;;;20.30;62.20;;;;;;5099269;28;20040;-34
2023/11/09 03:02:39;;;;;;;2.85;2.65;;;20.30;62.20;;;;;;5100769;28;20027;-34
2023/11/09 03:05:06;;;;;;;2.80;2.60;;;20.30;62.30;;;;;;5100488;28;20036;-34
2023/11/09 03:07:34;;;;;;;3.40;3.10;;;20.30;62.20;;;;;;5099656;28;20476;-34
2023/11/09 03:09:59;;;;;;;;;;;20.20;62.10;;;;;;5099201;28;20424;-33
2023/11/09 03:12:27;;;;;;;3.00;2.70;;;20.20;62.20;;;;;;5100707;28;19920;-34
2023/11/09 03:14:54;;;;;;;3.20;2.90;;;20.20;62.30;;;;;;5099549;28;20031;-34
2023/11/09 03:17:23;;;;;;;3.38;2.47;;;20.20;62.30;;;;;;5100224;28;20035;-34
2023/11/09 03:19:49;;;;;;;3.08;2.70;;;20.20;62.30;;;;;;5096442;28;20031;-33
2023/11/09 03:22:15;;;;;;;2.85;2.65;;;20.20;62.30;;;;;;5098996;28;20811;-34
2023/11/09 03:24:42;;;;;;;2.85;2.65;;;20.10;62.30;;;;;;5098338;28;20039;-34
2023/11/09 03:27:09;;;;;;;3.05;2.63;;;20.10;62.30;;;;;;5094084;28;20032;-33
2023/11/09 03:29:37;;;;;;;3.42;2.95;;;20.10;62.30;;;;;;5101857;28;20061;-33
2023/11/09 03:32:05;;;;;;;3.13;2.83;;;20.10;62.40;;;;;;5093246;28;20028;-33
2023/11/09 03:34:32;;;;;;;2.95;2.70;;;20.10;62.40;;;;;;5101734;28;20039;-33
2023/11/09 03:36:58;;;;;;;3.30;2.97;;;20.10;62.40;;;;;;5096806;28;20477;-33
2023/11/09 03:39:24;;;;;;;3.22;3.00;;;20.00;62.40;;;;;;5101157;28;20040;-33
2023/11/09 03:41:51;;;;;;;3.05;2.75;;;20.00;62.50;;;;;;5101235;28;20058;-33
2023/11/09 03:44:17;;;;;;;3.05;2.85;;;20.00;62.50;;;;;;5097292;28;20099;-33
2023/11/09 03:46:43;;;;;;;2.95;2.75;;;20.00;62.60;;;;;;5101407;28;20028;-34
2023/11/09 03:49:12;;;;;;;2.95;2.75;;;20.00;62.60;;;;;;5093946;28;20076;-34
2023/11/09 03:51:38;;;;;;;3.42;3.13;;;20.00;62.50;;;;;;5098455;28;20038;-33
2023/11/09 03:54:04;;;;;;;2.92;2.72;;;20.00;62.60;;;;;;5084182;28;20040;-33
2023/11/09 03:56:31;;;;;;;2.97;2.78;;;20.00;62.60;;;;;;5090461;28;20036;-33
2023/11/09 03:58:57;;;;;;;3.50;3.20;;;19.90;62.60;;;;;;5101394;28;20092;-33
2023/11/09 04:01:23;;;;;;;3.15;2.90;;;19.90;62.60;;;;;;5089820;28;20033;-34
2023/11/09 04:03:50;;;;;;;3.30;2.85;;;19.90;62.60;;;;;;5091312;28;20028;-33
2023/11/09 04:06:17;;;;;;;3.10;2.80;;;19.90;62.70;;;;;;5083897;28;20102;-33
2023/11/09 04:08:44;;;;;;;;;;;19.90;62.70;;;;;;5092237;28;20508;-34
2023/11/09 04:11:10;;;;;;;3.10;2.88;;;19.90;62.70;;;;;;5092129;28;19915;-33
2023/11/09 04:13:36;;;;;;;4.60;3.20;;;19.80;62.70;;;;;;5091178;28;20050;-34
2023/11/09 04:16:03;;;;;;;3.30;3.00;;;19.80;62.70;;;;;;5089245;28;20032;-34
2023/11/09 04:18:30;;;;;;;4.03;3.10;;;19.80;62.70;;;;;;5092364;28;20056;-34
2023/11/09 04:20:56;;;;;;;;;;;19.80;62.80;;;;;;5094172;28;20075;-34
2023/11/09 04:23:22;;;;;;;3.60;3.30;;;19.80;62.80;;;;;;5090246;28;19915;-34
2023/11/09 04:25:51;;;;;;;3.17;2.88;;;19.80;62.90;;;;;;5091566;28;20056;-34
2023/11/09 04:28:18;;;;;;;3.63;3.30;;;19.70;62.80;;;;;;5090537;28;20060;-33
2023/11/09 04:30:45;;;;;;;2.93;2.73;;;19.70;62.80;;;;;;5091192;28;20032;-33
2023/11/09 04:33:12;;;;;;;2.83;2.63;;;19.70;62.90;;;;;;5093033;28;20067;-33
2023/11/09 04:35:41;;;;;;;2.97;2.78;;;19.70;62.80;;;;;;5095838;28;20024;-33
2023/11/09 04:38:14;;;;;;;3.40;3.10;;;19.70;62.90;;;;;;5087128;28;20035;-33
2023/11/09 04:40:43;;;;;;;3.55;3.22;;;19.70;63.10;;;;;;5091638;28;20036;-33
2023/11/09 04:43:11;;;;;;;3.58;3.10;;;19.70;63.00;;;;;;5101436;28;20020;-33
2023/11/09 04:45:42;;;;;;;3.20;2.90;;;19.60;63.00;;;;;;5096581;28;20103;-34
2023/11/09 04:48:19;;;;;;;3.10;2.80;;;19.60;63.10;;;;;;5083352;28;20763;-34
2023/11/09 04:50:52;;;;;;;3.10;2.90;;;19.60;63.00;;;;;;5096764;28;20028;-33
2023/11/09 04:53:42;;;;;;;3.30;3.00;;;19.60;63.00;;;;;;5092248;28;20093;-33
2023/11/09 04:56:07;;;;;;;3.28;2.97;;;19.60;63.10;;;;;;5094020;28;22023;-33
2023/11/09 04:58:51;;;;;;;3.45;3.15;;;19.60;63.10;;;;;;5097682;28;20040;-33
2023/11/09 05:06:49;;;;;;;3.63;3.33;;;19.50;63.10;;;;;;5099350;28;20057;-33
2023/11/09 05:09:19;;;;;;;3.50;3.20;;;19.50;63.10;;;;;;5095947;28;20039;-33
2023/11/09 05:11:46;;;;;;;3.35;3.05;;;19.50;63.20;;;;;;5101283;28;20035;-33
2023/11/09 05:14:13;;;;;;;3.40;3.10;;;19.50;63.10;;;;;;5104578;28;20095;-34
2023/11/09 05:16:39;;;;;;;4.15;2.90;;;19.50;63.20;;;;;;5105350;28;20050;-33
2023/11/09 05:19:06;;;;;;;3.55;3.25;;;19.50;63.20;;;;;;5096228;28;20029;-34
2023/11/09 05:21:32;;;;;;;3.78;3.47;;;19.40;63.10;;;;;;5086462;28;20139;-34
2023/11/09 05:23:58;;;;;;;3.50;3.20;;;19.40;63.20;;;;;;5088108;28;20028;-34
2023/11/09 05:26:27;;;;;;;3.17;2.97;;;19.40;63.20;;;;;;5097055;28;20020;-35
2023/11/09 05:28:53;;;;;;;3.88;3.33;;;19.40;63.30;;;;;;5096590;28;20032;-34
2023/11/09 05:31:26;;;;;;;3.88;3.03;;;19.40;63.20;;;;;;5104499;28;20028;-33
2023/11/09 05:33:53;;;;;;;4.00;2.63;;;19.40;63.30;;;;;;5102939;28;20032;-33
2023/11/09 05:36:21;;;;;;;3.40;3.10;;;19.40;63.40;;;;;;5103775;28;20038;-34
2023/11/09 05:38:48;;;;;;;3.60;3.30;;;19.40;63.30;;;;;;5100419;28;20085;-33
2023/11/09 05:41:16;;;;;;;3.65;3.20;;;19.30;63.20;;;;;;5103730;28;20034;-34
2023/11/09 05:43:43;;;;;;;3.50;3.20;;;19.30;63.30;;;;;;5096587;28;20100;-34
2023/11/09 05:46:09;;;;;;;3.58;3.28;;;19.30;63.40;;;;;;5106187;28;20035;-34
2023/11/09 05:48:35;;;;;;;3.93;3.53;;;19.30;63.30;;;;;;5096802;28;20044;-34
2023/11/09 05:51:02;;;;;;;3.17;2.88;;;19.30;63.30;;;;;;5102691;28;20036;-34
2023/11/09 05:53:28;;;;;;;3.55;3.25;;;19.30;63.40;;;;;;5099348;28;20036;-34
2023/11/09 05:55:54;;;;;;;3.45;3.15;;;19.30;63.40;;;;;;5105882;28;20061;-34
2023/11/09 05:58:20;;;;;;;3.60;3.30;;;19.30;63.40;;;;;;5103649;28;20051;-34
2023/11/09 06:00:47;;;;;;;3.78;3.33;;;19.20;63.30;;;;;;5098585;28;20032;-34
2023/11/09 06:03:13;;;;;;;3.50;3.20;;;19.20;63.40;;;;;;5099622;28;20481;-34
2023/11/09 06:05:39;;;;;;;3.65;3.35;;;19.20;63.40;;;;;;5103728;28;20028;-34
2023/11/09 06:08:08;;;;;;;3.80;3.50;;;19.20;63.50;;;;;;5102152;28;20130;-34
2023/11/09 06:10:34;;;;;;;3.50;3.20;;;19.20;63.50;;;;;;5100546;28;20054;-34
2023/11/09 06:13:00;;;;;;;3.67;3.30;;;19.20;63.40;;;;;;5101303;28;20032;-33
2023/11/09 06:15:26;;;;;;;3.30;3.00;;;19.20;63.50;;;;;;5101214;28;20039;-33
2023/11/09 06:17:53;;;;;;;3.80;3.50;;;19.20;63.50;;;;;;5100365;28;20036;-33
2023/11/09 06:20:20;;;;;;;3.22;3.03;;;19.20;63.50;;;;;;5097616;28;20032;-34
2023/11/09 06:22:46;;;;;;;3.35;3.05;;;19.10;63.40;;;;;;5094841;28;20043;-34
2023/11/09 06:25:12;;;;;;;4.03;3.72;;;19.10;63.40;;;;;;5095638;28;20032;-34
2023/11/09 06:27:38;;;;;;;3.53;3.23;;;19.10;63.40;;;;;;5095767;28;20039;-33
2023/11/09 06:30:07;;;;;;;3.72;3.42;;;19.10;63.40;;;;;;5094317;28;20028;-33
2023/11/09 06:32:36;;;;;;;3.67;3.38;;;19.10;63.50;;;;;;5092863;28;20458;-34
2023/11/09 06:35:06;;;;;;;3.63;3.33;;;19.10;63.60;;;;;;5099712;28;20038;-34
2023/11/09 06:37:32;;;;;;;3.60;3.30;;;19.10;63.50;;;;;;5096108;28;20046;-34
2023/11/09 06:40:01;;;;;;;3.42;3.13;;;19.10;63.60;;;;;;5088320;28;20025;-33
2023/11/09 06:42:29;;;;;;;3.47;3.17;;;19.00;63.50;;;;;;5091214;28;20058;-34
2023/11/09 06:44:56;;;;;;;3.53;3.22;;;19.00;63.50;;;;;;5086817;28;20048;-33
2023/11/09 06:47:22;;;;;;;3.42;3.13;;;19.00;63.50;;;;;;5099563;28;20147;-33
2023/11/09 06:49:48;;;;;;;3.58;3.20;;;19.00;63.50;;;;;;5099655;28;20047;-33
2023/11/09 06:52:14;;;;;;;3.90;3.60;;;19.00;63.60;;;;;;5102506;28;20039;-34
2023/11/09 06:54:40;;;;;;;3.38;3.08;;;19.00;63.60;;;;;;5100636;28;20028;-34
2023/11/09 06:57:11;;;;;;;3.72;3.42;;;19.00;63.60;;;;;;5101900;28;20023;-33
2023/11/09 06:59:37;;;;;;;3.92;3.53;;;19.00;63.60;;;;;;5103169;28;20028;-34
2023/11/09 07:02:03;;;;;;;3.60;3.30;;;19.00;63.60;;;;;;5098939;28;20024;-34
2023/11/09 07:04:29;;;;;;;3.97;3.60;;;19.00;63.60;;;;;;5098441;28;20028;-34
2023/11/09 07:06:55;;;;;;;3.92;3.53;;;18.90;63.60;;;;;;5100785;28;20043;-34
2023/11/09 07:09:21;;;;;;;3.70;3.40;;;18.90;63.60;;;;;;5101232;28;20032;-35
2023/11/09 07:11:52;;;;;;;3.80;3.50;;;18.90;63.60;;;;;;5099934;28;20027;-34
2023/11/09 07:14:23;;;;;;;3.70;3.40;;;18.90;63.60;;;;;;5094934;28;20047;-33
2023/11/09 07:16:55;;;;;;;3.50;3.20;;;18.90;63.60;;;;;;5093273;28;20028;-34
2023/11/09 07:19:22;;;;;;;3.72;3.42;;;18.90;63.70;;;;;;5096030;28;20036;-34
2023/11/09 07:21:49;;;;;;;3.70;3.40;;;18.90;63.70;;;;;;5087167;28;20144;-34
2023/11/09 07:24:17;;;;;;;3.67;3.38;;;18.90;63.80;;;;;;5097638;28;20036;-35
2023/11/09 07:26:44;;;;;;;3.78;3.47;;;18.90;63.70;;;;;;5085509;28;20040;-34
2023/11/09 07:29:10;;;;;;;3.30;3.05;;;18.80;63.80;;;;;;5092236;28;20016;-33
2023/11/09 07:31:36;;;;;;;3.97;3.60;;;18.80;63.80;;;;;;5085058;28;20127;-33
2023/11/09 07:34:02;;;;;;;3.72;3.42;;;18.80;63.80;;;;;;5094420;28;20065;-34
2023/11/09 07:36:28;;;;;;;2.80;2.60;;;18.80;63.80;;;;;;5086862;28;20394;-33
2023/11/09 07:38:55;;;;;;;3.80;3.50;;;18.80;63.80;;;;;;5093495;28;20085;-33
2023/11/09 07:41:25;;;;;;;3.53;3.22;;;18.80;63.80;;;;;;5088863;28;20118;-34
2023/11/09 07:43:52;;;;;;;3.80;3.50;;;18.80;63.90;;;;;;5092782;28;20052;-34
2023/11/09 07:46:18;;;;;;;3.30;3.10;;;18.80;64.60;;;;;;5092388;28;20115;-34
2023/11/09 07:48:44;;;;;;;3.50;3.20;;;18.80;63.90;;;;;;5090599;28;20115;-34
2023/11/09 07:51:13;;;;;;;3.88;3.58;;;18.80;63.90;;;;;;5099170;28;20024;-34
2023/11/09 07:53:39;;;;;;;3.45;3.15;;;18.80;63.90;;;;;;5096837;28;20035;-34
2023/11/09 07:56:06;;;;;;;4.10;3.60;;;18.70;63.80;;;;;;5098070;28;20052;-33
2023/11/09 07:58:32;;;;;;;3.83;3.42;;;18.70;63.80;;;;;;5096115;28;20032;-33
2023/11/09 08:00:59;;;;;;;3.92;3.63;;;18.70;63.90;;;;;;5098284;28;20119;-34
2023/11/09 08:03:25;;;;;;;3.50;3.30;;;18.70;63.90;;;;;;5100643;28;20032;-33
2023/11/09 08:05:51;;;;;;;3.42;3.13;;;18.70;63.90;;;;;;5093786;28;20085;-34
2023/11/09 08:08:19;;;;;;;3.72;3.42;;;18.70;64.00;;;;;;5097242;28;20095;-34
2023/11/09 08:10:45;;;;;;;3.97;3.67;;;18.70;64.00;;;;;;5102608;28;20027;-34
2023/11/09 08:13:11;;;;;;;3.70;3.22;;;18.70;64.10;;;;;;5096304;28;20746;-35
2023/11/09 08:15:38;;;;;;;3.45;3.15;;;18.70;64.00;;;;;;5105346;28;20028;-34
2023/11/09 08:18:04;;;;;;;3.55;3.25;;;18.70;64.00;;;;;;5086630;28;20036;-34
2023/11/09 08:20:30;;;;;;;3.63;3.33;;;18.60;64.00;;;;;;5089060;28;20040;-33
2023/11/09 08:22:56;;;;;;;3.60;3.13;;;18.60;64.00;;;;;;5091350;28;20029;-34
2023/11/09 08:27:51;;;;;;;4.00;3.53;;;18.60;64.10;;;;;;5083670;28;20112;-34
2023/11/09 08:30:19;;;;;;;3.92;3.60;;;18.60;64.00;;;;;;5084146;28;20285;-34
2023/11/09 08:32:48;;;;;;;3.83;3.53;;;18.60;64.10;;;;;;5091550;28;20115;-34
2023/11/09 08:35:14;;;;;;;4.30;3.50;;;18.60;64.10;;;;;;5091657;28;20035;-34
2023/11/09 08:37:43;;;;;;;3.55;3.25;;;18.60;64.20;;;;;;5071528;28;20036;-34
2023/11/09 08:40:16;;;;;;;3.60;3.30;;;18.60;64.10;;;;;;5093425;28;20012;-34
2023/11/09 08:42:48;;;;;;;3.38;3.10;;;18.60;64.20;;;;;;5081392;28;20108;-34
2023/11/09 08:45:18;;;;;;;3.63;3.33;;;18.50;64.10;;;;;;5100319;28;20052;-34
2023/11/09 08:47:45;;;;;;;4.20;3.30;;;18.50;64.20;;;;;;5081211;28;20546;-34
2023/11/09 08:50:13;;;;;;;3.90;3.38;;;18.50;64.10;;;;;;5100802;28;20190;-34
2023/11/09 08:52:42;;;;;;;4.45;3.60;;;18.50;64.20;;;;;;5095804;28;20059;-34
2023/11/09 08:55:08;;;;;;;3.92;3.63;;;18.50;64.20;;;;;;5093958;28;20028;-34
2023/11/09 08:57:38;;;;;;;3.88;3.58;;;18.50;64.20;;;;;;5091793;28;20094;-35
2023/11/09 09:00:06;;;;;;;3.85;3.53;;;18.50;64.30;;;;;;5090765;28;20028;-34
2023/11/09 09:02:32;;;;;;;3.78;3.47;;;18.40;64.20;;;;;;5099574;28;20481;-34
2023/11/09 09:05:02;;;;;;;3.93;3.63;;;18.50;64.30;;;;;;5095816;28;20025;-34
2023/11/09 09:07:29;;;;;;;3.80;3.47;;;18.40;64.20;;;;;;5089196;28;20094;-33
2023/11/09 09:09:56;;;;;;;3.78;3.40;;;18.50;64.30;;;;;;5086598;28;20060;-34
2023/11/09 09:12:22;;;;;;;6.20;3.80;;;18.40;64.20;;;;;;5090348;28;20393;-34
2023/11/09 09:14:51;;;;;;;3.55;3.25;;;18.40;64.30;;;;;;5096354;28;20028;-35
2023/11/09 09:17:17;;;;;;;4.03;3.63;;;18.40;64.30;;;;;;5106271;28;20052;-34
2023/11/09 09:19:43;;;;;;;3.78;3.47;;;18.40;64.30;;;;;;5099804;28;20020;-36
2023/11/09 09:22:09;;;;;;;4.32;3.85;;;18.40;64.30;;;;;;5095869;28;20023;-34
2023/11/09 09:24:40;;;;;;;4.15;3.80;;;18.40;64.40;;;;;;5096723;28;20100;-34
2023/11/09 09:27:06;;;;;;;3.85;3.47;;;18.40;64.40;;;;;;5093658;28;20032;-34
2023/11/09 09:29:35;;;;;;;4.00;3.70;;;18.40;64.30;;;;;;5087274;28;20043;-35
2023/11/09 09:32:04;;;;;;;4.20;3.67;;;18.30;64.30;;;;;;5100894;28;20047;-35
2023/11/09 09:34:30;;;;;;;4.10;3.70;;;18.30;64.30;;;;;;5098184;28;20032;-34
2023/11/09 09:36:58;;;;;;;3.92;3.60;;;18.30;64.40;;;;;;5091146;28;20522;-40
2023/11/09 09:39:25;;;;;;;3.88;3.58;;;18.30;64.30;;;;;;5093515;28;20025;-34
2023/11/09 09:41:51;;;;;;;4.07;3.67;;;18.30;64.40;;;;;;5094184;28;20183;-34
2023/11/09 09:44:18;;;;;;;5.07;3.83;;;18.30;64.40;;;;;;5085162;28;20052;-34
2023/11/09 09:46:48;;;;;;;4.80;3.83;;;18.30;64.50;;;;;;5095142;28;20071;-34
2023/11/09 09:49:14;;;;;;;3.85;3.50;;;18.30;64.40;;;;;;5096881;28;20044;-34
2023/11/09 09:51:41;;;;;;;4.00;3.70;;;18.30;64.50;;;;;;5101583;28;20036;-34
2023/11/09 09:54:10;;;;;;;3.90;3.60;;;18.30;64.50;;;;;;5098528;28;20090;-34
2023/11/09 09:56:40;;;;;;;4.05;3.75;;;18.20;64.50;;;;;;5098664;28;20284;-35
2023/11/09 09:59:09;;;;;;;4.10;3.70;;;18.20;64.50;;;;;;5101501;28;20034;-35
2023/11/09 10:01:40;;;;;;;4.20;3.80;;;18.20;65.20;;;;;;5102751;28;20031;-34
2023/11/09 10:04:06;;;;;;;3.90;3.60;;;18.20;64.50;;;;;;5100749;28;20042;-34
2023/11/09 10:06:32;;;;;;;4.00;3.60;;;18.20;64.50;;;;;;5099720;28;20039;-35
2023/11/09 10:08:58;;;;;;;4.30;4.00;;;18.20;64.50;;;;;;5100485;28;20385;-35
2023/11/09 10:11:25;;;;;;;4.35;3.88;;;18.20;64.50;;;;;;5102125;28;20034;-35
2023/11/09 10:13:51;;;;;;;4.30;3.90;;;18.20;64.50;;;;;;5098635;28;20043;-35
2023/11/09 10:16:21;;;;;;;3.85;3.55;;;18.20;64.50;;;;;;5105428;28;20028;-34
2023/11/09 10:18:48;;;;;;;3.83;3.50;;;18.20;64.50;;;;;;5102281;28;20039;-34
2023/11/09 10:21:14;;;;;;;4.40;4.00;;;18.20;64.50;;;;;;5095613;28;20035;-34
2023/11/09 10:23:40;;;;;;;4.10;3.80;;;18.20;64.60;;;;;;5095688;28;20029;-34
2023/11/09 10:26:12;;;;;;;3.85;3.55;;;18.10;64.40;;;;;;5102593;28;20061;-34
2023/11/09 10:28:38;;;;;;;4.10;3.70;;;18.10;64.50;;;;;;5103239;28;20036;-34
2023/11/09 10:31:04;;;;;;;4.63;4.22;;;18.10;64.50;;;;;;5100528;28;20096;-34
2023/11/09 10:33:32;;;;;;;3.78;3.45;;;18.10;64.50;;;;;;5096409;28;20036;-34
2023/11/09 10:35:58;;;;;;;3.75;3.45;;;18.10;64.60;;;;;;5093563;28;20031;-34
2023/11/09 10:38:25;;;;;;;3.90;3.30;;;18.10;64.60;;;;;;5092024;28;20417;-34
2023/11/09 10:40:55;;;;;;;4.10;3.70;;;18.10;64.60;;;;;;5103486;28;20035;-33
2023/11/09 10:43:21;;;;;;;4.22;3.83;;;18.10;64.60;;;;;;5097818;28;20047;-33
2023/11/09 10:45:49;;;;;;;3.97;3.67;;;18.10;64.60;;;;;;5102634;28;20039;-34
2023/11/09 10:48:19;;;;;;;3.83;3.53;;;18.00;64.60;;;;;;5094890;28;20044;-34
2023/11/09 10:50:47;;;;;;;4.25;3.85;;;18.00;64.60;;;;;;5095276;28;20032;-34
2023/11/09 10:53:22;;;;;;;4.07;3.78;;;18.00;64.70;;;;;;5102476;28;20043;-33
2023/11/09 10:55:59;;;;;;;4.22;3.83;;;18.00;64.70;;;;;;5101556;28;20032;-33
2023/11/09 10:58:25;;;;;;;4.33;3.93;;;18.00;64.60;;;;;;5091997;28;20058;-33
2023/11/09 11:00:52;;;;;;;4.35;3.95;;;18.00;64.70;;;;;;5092130;28;20039;-33
2023/11/09 11:03:35;;;;;;;4.30;3.90;;;18.00;64.70;;;;;;5095013;28;20024;-34
2023/11/09 11:06:09;;;;;;;4.32;4.03;;;18.00;64.70;;;;;;5088511;28;20039;-34
2023/11/09 11:08:40;;;;;;;3.97;3.67;;;18.00;64.70;;;;;;5096541;28;20035;-33
2023/11/09 11:11:09;;;;;;;4.10;3.80;;;18.00;64.80;;;;;;5092757;28;20021;-33
2023/11/09 11:13:36;;;;;;;4.00;3.70;;;18.00;64.80;;;;;;5102185;28;20050;-33
2023/11/09 11:16:33;;;;;;;3.80;3.50;;;17.90;64.70;;;;;;5100520;28;20024;-33
2023/11/09 11:19:18;;;;;;;4.15;3.78;;;18.00;64.80;;;;;;5101848;28;20056;-34
2023/11/09 11:22:08;;;;;;;4.13;3.70;;;17.90;64.70;;;;;;5095208;28;20050;-34
2023/11/09 11:24:37;;;;;;;4.10;3.80;;;17.90;64.80;;;;;;5090133;28;20058;-33
2023/11/09 11:27:06;;;;;;;4.50;4.10;;;17.90;64.80;;;;;;5101079;28;20064;-33
2023/11/09 11:29:35;;;;;;;3.78;3.47;;;17.90;64.80;;;;;;5101142;28;20075;-33
2023/11/09 11:32:03;;;;;;;4.13;3.72;;;17.90;64.80;;;;;;5101106;28;20138;-34
2023/11/09 11:34:45;;;;;;;4.25;3.85;;;17.90;64.80;;;;;;5102227;28;20065;-34
2023/11/09 11:37:13;;;;;;;4.18;3.78;;;17.90;64.80;;;;;;5097173;28;20055;-34
2023/11/09 11:39:40;;;;;;;4.00;3.70;;;17.90;64.90;;;;;;5086917;28;20028;-34
2023/11/09 11:42:19;;;;;;;4.50;4.10;;;17.90;64.90;;;;;;5093486;28;21028;-34
2023/11/09 11:44:55;;;;;;;4.20;3.80;;;17.90;64.90;;;;;;5085384;28;20053;-34
2023/11/09 11:47:24;;;;;;;3.90;3.53;;;17.90;64.90;;;;;;5091811;28;20086;-34
2023/11/09 11:49:51;;;;;;;4.20;3.90;;;17.80;64.90;;;;;;5098161;28;20028;-34
2023/11/09 11:52:20;;;;;;;4.40;4.00;;;17.90;64.90;;;;;;5090766;28;20775;-34
2023/11/09 11:54:46;;;;;;;3.88;3.58;;;17.80;64.90;;;;;;5097481;28;20493;-34
2023/11/09 11:57:13;;;;;;;4.25;3.95;;;17.80;64.90;;;;;;5094087;28;20071;-34
2023/11/09 11:59:44;;;;;;;4.53;4.13;;;17.80;64.90;;;;;;5101275;28;20047;-34
2023/11/09 12:02:12;;;;;;;4.30;3.83;;;17.80;64.90;;;;;;5098418;28;20032;-34
2023/11/09 12:04:47;;;;;;;3.90;3.53;;;17.80;65.00;;;;;;5087197;28;20036;-35
2023/11/09 12:07:18;;;;;;;4.05;3.70;;;17.80;65.00;;;;;;5094500;28;20063;-34
2023/11/09 12:09:48;;;;;;;4.15;3.75;;;17.80;65.00;;;;;;5097530;28;20028;-34
2023/11/09 12:12:14;;;;;;;4.35;3.92;;;17.80;65.00;;;;;;5093571;28;20048;-34
2023/11/09 12:14:46;;;;;;;4.37;3.93;;;17.80;65.00;;;;;;5101737;28;20085;-34
2023/11/09 12:17:13;;;;;;;3.90;3.60;;;17.80;65.00;;;;;;5103445;28;20372;-34
2023/11/09 12:19:42;;;;;;;3.87;3.57;;;17.80;65.00;;;;;;5095034;28;20704;-34
2023/11/09 12:22:08;;;;;;;4.05;3.70;;;17.80;65.00;;;;;;5096966;28;20287;-34
2023/11/09 12:24:35;;;;;;;4.60;4.20;;;17.80;65.00;;;;;;5098592;28;20036;-34
2023/11/09 12:27:09;;;;;;;4.30;3.97;;;17.70;64.90;;;;;;5104722;28;20038;-34
2023/11/09 12:29:38;;;;;;;4.43;3.78;;;17.70;65.00;;;;;;5099503;28;20050;-34
2023/11/09 12:32:06;;;;;;;4.50;4.10;;;17.70;65.00;;;;;;5102960;28;20393;-34
2023/11/09 12:34:35;;;;;;;4.25;3.95;;;17.70;65.00;;;;;;5105091;28;20057;-34
2023/11/09 12:37:02;;;;;;;5.75;4.00;;;17.70;65.10;;;;;;5099222;28;20043;-34
2023/11/09 12:39:28;;;;;;;;;;;17.70;65.10;;;;;;5099501;28;20451;-34
2023/11/09 12:42:10;;;;;;;4.00;3.70;;;17.70;65.10;;;;;;5104533;28;19908;-34
2023/11/09 12:44:42;;;;;;;4.38;3.97;;;17.70;65.10;;;;;;5104879;28;20113;-34
2023/11/09 12:47:15;;;;;;;4.07;3.78;;;17.70;65.10;;;;;;5102088;28;20056;-34
2023/11/09 12:49:43;;;;;;;4.18;3.88;;;17.70;65.10;;;;;;5101796;28;20063;-33
2023/11/09 12:52:09;;;;;;;4.22;3.83;;;17.60;65.10;;;;;;5102231;28;20041;-34
2023/11/09 12:54:36;;;;;;;3.97;3.67;;;17.70;65.10;;;;;;5094306;28;20092;-34
2023/11/09 12:57:05;;;;;;;4.47;4.17;;;17.70;65.20;;;;;;5095051;28;20068;-33
2023/11/09 12:59:33;;;;;;;3.95;3.65;;;17.60;65.10;;;;;;5104669;28;20058;-33